createdAt,value
2023-05-07T00:00:11.038Z,9.30
2023-05-07T00:02:37.547Z,9.48
2023-05-07T00:05:04.307Z,9.23
2023-05-07T00:07:30.734Z,8.73
2023-05-07T00:09:57.034Z,10.93
2023-05-07T00:12:23.250Z,9.98
2023-05-07T00:14:49.503Z,11.02
2023-05-07T00:17:15.808Z,10.80
2023-05-07T00:19:42.067Z,10.52
2023-05-07T00:22:08.322Z,9.18
2023-05-07T00:24:34.602Z,10.02
2023-05-07T00:27:00.851Z,9.30
2023-05-07T00:29:27.117Z,9.27
2023-05-07T00:31:53.402Z,7.97
2023-05-07T00:34:19.683Z,7.03
2023-05-07T00:36:45.924Z,7.10
2023-05-07T00:39:12.204Z,7.32
2023-05-07T00:41:38.446Z,6.82
2023-05-07T00:44:04.649Z,5.57
2023-05-07T00:46:31.050Z,4.88
2023-05-07T00:48:57.390Z,3.75
2023-05-07T00:51:23.615Z,3.55
2023-05-07T00:53:49.879Z,3.92
2023-05-07T00:56:16.097Z,3.60
2023-05-07T00:58:42.382Z,4.15
2023-05-07T01:01:08.730Z,3.85
2023-05-07T01:03:35.028Z,3.47
2023-05-07T01:06:01.691Z,3.83
2023-05-07T01:08:28.469Z,4.15
2023-05-07T01:10:54.731Z,3.15
2023-05-07T01:13:21.017Z,3.20
2023-05-07T01:15:47.384Z,2.58
2023-05-07T01:18:13.692Z,2.75
2023-05-07T01:20:40.015Z,5.03
2023-05-07T01:23:06.271Z,5.82
2023-05-07T01:25:32.515Z,7.90
2023-05-07T01:27:58.736Z,8.02
2023-05-07T01:30:25.005Z,7.85
2023-05-07T01:32:51.269Z,7.72
2023-05-07T01:35:17.519Z,9.23
2023-05-07T01:37:43.737Z,6.80
2023-05-07T01:40:10.070Z,6.55
2023-05-07T01:42:36.425Z,6.60
2023-05-07T01:45:02.623Z,5.10
2023-05-07T01:47:28.899Z,4.68
2023-05-07T01:49:55.124Z,3.78
2023-05-07T01:52:21.399Z,2.70
2023-05-07T01:54:47.718Z,3.10
2023-05-07T01:57:13.988Z,2.70
2023-05-07T01:59:40.237Z,3.38
2023-05-07T02:02:06.543Z,2.72
2023-05-07T02:04:32.781Z,2.85
2023-05-07T02:06:59.012Z,2.67
2023-05-07T02:09:25.260Z,3.10
2023-05-07T02:11:51.542Z,2.65
2023-05-07T02:14:17.838Z,2.42
2023-05-07T02:16:44.217Z,3.10
2023-05-07T02:19:10.467Z,2.90
2023-05-07T02:21:36.674Z,2.88
2023-05-07T02:24:02.963Z,2.70
2023-05-07T02:26:29.167Z,2.63
2023-05-07T02:28:55.424Z,2.90
2023-05-07T02:31:21.715Z,2.75
2023-05-07T02:33:48.060Z,3.00
2023-05-07T02:36:14.332Z,3.08
2023-05-07T02:38:40.569Z,3.63
2023-05-07T02:41:06.832Z,3.80
2023-05-07T02:43:33.137Z,4.05
2023-05-07T02:45:59.396Z,3.40
2023-05-07T02:48:25.640Z,3.58
2023-05-07T02:50:51.916Z,3.63
2023-05-07T02:53:18.125Z,3.65
2023-05-07T02:55:44.358Z,3.50
2023-05-07T02:58:10.571Z,4.07
2023-05-07T03:00:36.825Z,4.03
2023-05-07T03:03:03.180Z,4.35
2023-05-07T03:05:29.535Z,3.90
2023-05-07T03:07:55.784Z,4.88
2023-05-07T03:10:22.021Z,5.53
2023-05-07T03:12:48.306Z,4.50
2023-05-07T03:15:14.522Z,4.65
2023-05-07T03:17:40.768Z,4.68
2023-05-07T03:20:07.236Z,4.97
2023-05-07T03:22:33.543Z,4.03
2023-05-07T03:24:59.837Z,4.57
2023-05-07T03:27:26.147Z,4.50
2023-05-07T03:29:52.408Z,4.03
2023-05-07T03:32:18.638Z,4.20
2023-05-07T03:34:44.986Z,4.10
2023-05-07T03:37:11.338Z,4.00
2023-05-07T03:39:37.639Z,3.92
2023-05-07T03:42:03.847Z,3.58
2023-05-07T03:44:30.093Z,4.00
2023-05-07T03:46:56.334Z,4.50
2023-05-07T03:49:22.629Z,4.60
2023-05-07T03:51:48.914Z,3.75
2023-05-07T03:54:15.130Z,3.97
2023-05-07T03:56:41.437Z,4.10
2023-05-07T03:59:07.792Z,4.28
2023-05-07T04:01:34.110Z,3.72
2023-05-07T04:04:00.556Z,4.03
2023-05-07T04:06:26.913Z,3.63
2023-05-07T04:08:53.226Z,3.88
2023-05-07T04:11:19.530Z,4.32
2023-05-07T04:13:45.802Z,4.25
2023-05-07T04:16:12.141Z,4.13
2023-05-07T04:18:38.373Z,4.25
2023-05-07T04:21:04.724Z,4.00
2023-05-07T04:23:30.966Z,5.30
2023-05-07T04:25:57.228Z,4.93
2023-05-07T04:28:23.500Z,4.65
2023-05-07T04:30:49.796Z,4.35
2023-05-07T04:33:16.102Z,5.07
2023-05-07T04:35:42.428Z,4.70
2023-05-07T04:38:08.738Z,4.55
2023-05-07T04:40:35.026Z,4.82
2023-05-07T04:43:01.266Z,5.22
2023-05-07T04:45:27.520Z,5.70
2023-05-07T04:47:53.852Z,5.65
2023-05-07T04:50:20.085Z,5.60
2023-05-07T04:52:46.348Z,5.63
2023-05-07T04:55:12.604Z,5.18
2023-05-07T04:57:38.868Z,5.47
2023-05-07T05:00:05.138Z,5.30
2023-05-07T05:02:31.397Z,4.65
2023-05-07T05:04:57.670Z,5.45
2023-05-07T05:07:23.879Z,5.25
2023-05-07T05:09:50.103Z,5.05
2023-05-07T05:12:16.336Z,5.90
2023-05-07T05:14:42.658Z,5.72
2023-05-07T05:17:08.873Z,5.53
2023-05-07T05:19:35.077Z,5.72
2023-05-07T05:22:01.405Z,5.97
2023-05-07T05:24:27.701Z,6.07
2023-05-07T05:26:53.978Z,5.75
2023-05-07T05:29:20.164Z,5.38
2023-05-07T05:31:46.451Z,5.93
2023-05-07T05:34:12.694Z,5.35
2023-05-07T05:36:38.954Z,5.97
2023-05-07T05:39:05.221Z,5.40
2023-05-07T05:41:31.444Z,5.82
2023-05-07T05:43:57.795Z,6.05
2023-05-07T05:46:24.173Z,5.75
2023-05-07T05:48:50.474Z,4.97
2023-05-07T05:51:16.809Z,5.20
2023-05-07T05:53:43.033Z,5.00
2023-05-07T05:56:09.340Z,5.28
2023-05-07T05:58:35.624Z,5.43
2023-05-07T06:01:01.944Z,5.10
2023-05-07T06:03:28.225Z,5.38
2023-05-07T06:05:54.529Z,5.93
2023-05-07T06:08:20.862Z,5.70
2023-05-07T06:10:47.126Z,5.47
2023-05-07T06:13:13.379Z,5.20
2023-05-07T06:15:39.711Z,6.18
2023-05-07T06:18:06.088Z,5.50
2023-05-07T06:20:32.426Z,5.93
2023-05-07T06:22:58.600Z,4.88
2023-05-07T06:25:24.888Z,5.45
2023-05-07T06:27:51.143Z,6.32
2023-05-07T06:30:17.414Z,6.75
2023-05-07T06:32:43.845Z,6.18
2023-05-07T06:35:10.176Z,5.90
2023-05-07T06:37:36.452Z,4.65
2023-05-07T06:40:02.677Z,4.55
2023-05-07T06:42:28.899Z,4.43
2023-05-07T06:44:55.124Z,4.88
2023-05-07T06:47:21.427Z,4.82
2023-05-07T06:49:47.728Z,4.05
2023-05-07T06:52:14.027Z,3.97
2023-05-07T06:54:40.310Z,5.45
2023-05-07T06:57:06.557Z,5.40
2023-05-07T06:59:32.844Z,5.38
2023-05-07T07:01:59.257Z,4.43
2023-05-07T07:04:25.738Z,4.15
2023-05-07T07:06:52.078Z,3.95
2023-05-07T07:09:18.387Z,3.75
2023-05-07T07:11:44.613Z,3.50
2023-05-07T07:14:10.862Z,3.25
2023-05-07T07:16:37.239Z,3.30
2023-05-07T07:19:03.572Z,3.60
2023-05-07T07:21:29.818Z,2.97
2023-05-07T07:23:56.014Z,3.25
2023-05-07T07:26:22.288Z,3.50
2023-05-07T07:28:48.471Z,3.88
2023-05-07T07:31:14.788Z,3.90
2023-05-07T07:33:41.033Z,4.22
2023-05-07T07:36:07.337Z,5.18
2023-05-07T07:38:33.569Z,5.00
2023-05-07T07:40:59.793Z,5.45
2023-05-07T07:43:26.032Z,4.55
2023-05-07T07:45:52.278Z,4.35
2023-05-07T07:48:18.487Z,5.00
2023-05-07T07:50:46.126Z,3.83
2023-05-07T07:53:12.944Z,3.25
2023-05-07T07:55:39.296Z,2.83
2023-05-07T07:58:07.049Z,2.58
2023-05-07T08:00:33.333Z,2.75
2023-05-07T08:02:59.768Z,2.53
2023-05-07T08:05:26.164Z,2.10
2023-05-07T08:07:52.436Z,1.85
2023-05-07T08:10:18.684Z,1.20
2023-05-07T08:12:44.969Z,0.98
2023-05-07T08:15:11.327Z,2.05
2023-05-07T08:17:37.807Z,1.20
2023-05-07T08:20:04.348Z,1.25
2023-05-07T08:22:30.755Z,1.10
2023-05-07T08:24:57.109Z,1.00
2023-05-07T08:27:23.474Z,1.38
2023-05-07T08:29:49.739Z,1.08
2023-05-07T08:32:15.975Z,1.27
2023-05-07T08:34:42.217Z,1.30
2023-05-07T08:37:08.441Z,1.20
2023-05-07T08:39:34.702Z,1.50
2023-05-07T08:42:00.982Z,1.50
2023-05-07T08:44:27.215Z,1.30
2023-05-07T08:46:53.458Z,1.30
2023-05-07T08:49:19.770Z,1.40
2023-05-07T08:51:46.009Z,1.38
2023-05-07T08:54:12.242Z,1.52
2023-05-07T08:56:38.457Z,1.83
2023-05-07T08:59:04.754Z,1.50
2023-05-07T09:01:31.088Z,1.65
2023-05-07T09:03:57.402Z,1.70
2023-05-07T09:06:23.676Z,1.63
2023-05-07T09:08:49.921Z,2.70
2023-05-07T09:11:16.207Z,2.80
2023-05-07T09:13:42.596Z,3.38
2023-05-07T09:16:08.901Z,3.45
2023-05-07T09:18:35.176Z,2.25
2023-05-07T09:21:01.380Z,1.30
2023-05-07T09:23:27.708Z,0.80
2023-05-07T09:25:53.933Z,0.80
2023-05-07T09:28:20.182Z,0.93
2023-05-07T09:30:46.394Z,0.88
2023-05-07T09:33:12.704Z,0.90
2023-05-07T09:35:38.986Z,1.00
2023-05-07T09:38:05.245Z,1.30
2023-05-07T09:40:31.521Z,1.00
2023-05-07T09:42:57.748Z,0.90
2023-05-07T09:45:24.010Z,1.00
2023-05-07T09:47:50.420Z,1.38
2023-05-07T09:50:16.763Z,1.17
2023-05-07T09:52:43.054Z,1.38
2023-05-07T09:55:09.447Z,1.65
2023-05-07T09:57:35.930Z,1.60
2023-05-07T10:00:02.251Z,1.75
2023-05-07T10:02:28.690Z,1.48
2023-05-07T10:04:54.998Z,1.50
2023-05-07T10:07:21.303Z,1.45
2023-05-07T10:09:49.004Z,1.48
2023-05-07T10:12:15.508Z,1.45
2023-05-07T10:14:41.808Z,1.50
2023-05-07T10:17:08.121Z,1.00
2023-05-07T10:19:34.360Z,1.20
2023-05-07T10:22:00.601Z,1.00
2023-05-07T10:24:26.873Z,1.25
2023-05-07T10:26:53.135Z,1.20
2023-05-07T10:29:19.438Z,1.02
2023-05-07T10:31:45.727Z,1.10
2023-05-07T10:34:12.035Z,0.95
2023-05-07T10:36:38.693Z,0.70
2023-05-07T10:39:05.024Z,1.13
2023-05-07T10:41:31.263Z,0.85
2023-05-07T10:43:57.543Z,1.15
2023-05-07T10:46:23.879Z,0.80
2023-05-07T10:48:50.108Z,0.80
2023-05-07T10:51:16.375Z,0.70
2023-05-07T10:53:42.638Z,0.93
2023-05-07T10:56:08.941Z,0.70
2023-05-07T10:58:35.247Z,0.90
2023-05-07T11:01:01.510Z,0.77
2023-05-07T11:03:27.822Z,0.80
2023-05-07T11:05:54.076Z,0.88
2023-05-07T11:08:20.372Z,0.90
2023-05-07T11:10:46.631Z,1.02
2023-05-07T11:13:13.004Z,0.80
2023-05-07T11:15:39.322Z,0.70
2023-05-07T11:18:05.649Z,0.82
2023-05-07T11:20:32.034Z,0.68
2023-05-07T11:22:58.326Z,0.55
2023-05-07T11:25:24.576Z,0.82
2023-05-07T11:27:50.783Z,0.68
2023-05-07T11:30:17.158Z,0.60
2023-05-07T11:32:43.479Z,0.60
2023-05-07T11:35:09.896Z,0.70
2023-05-07T11:37:36.211Z,0.80
2023-05-07T11:40:02.464Z,1.00
2023-05-07T11:42:28.746Z,0.98
2023-05-07T11:44:55.086Z,0.70
2023-05-07T11:47:21.490Z,0.80
2023-05-07T11:49:47.766Z,0.90
2023-05-07T11:52:14.060Z,0.70
2023-05-07T11:54:40.297Z,0.90
2023-05-07T11:57:06.627Z,0.70
2023-05-07T11:59:32.887Z,0.70
2023-05-07T12:01:59.255Z,0.80
2023-05-07T12:04:25.724Z,0.80
2023-05-07T12:06:52.039Z,0.77
2023-05-07T12:09:18.376Z,1.00
2023-05-07T12:11:44.719Z,0.70
2023-05-07T12:14:12.413Z,0.80
2023-05-07T12:16:38.885Z,0.60
2023-05-07T12:19:05.174Z,0.80
2023-05-07T12:21:31.457Z,0.70
2023-05-07T12:23:57.766Z,0.75
2023-05-07T12:26:24.001Z,0.80
2023-05-07T12:28:50.260Z,0.70
2023-05-07T12:31:16.624Z,0.80
2023-05-07T12:33:42.984Z,0.70
2023-05-07T12:36:09.274Z,0.70
2023-05-07T12:38:35.623Z,0.57
2023-05-07T12:41:01.902Z,0.65
2023-05-07T12:43:28.219Z,0.60
2023-05-07T12:45:54.458Z,0.68
2023-05-07T12:48:20.770Z,0.60
2023-05-07T12:50:46.992Z,0.70
2023-05-07T12:53:13.255Z,0.85
2023-05-07T12:55:39.593Z,0.70
2023-05-07T12:58:05.935Z,0.47
2023-05-07T13:00:32.169Z,0.52
2023-05-07T13:02:58.522Z,0.65
2023-05-07T13:05:24.789Z,0.60
2023-05-07T13:07:51.031Z,0.40
2023-05-07T13:10:17.346Z,0.60
2023-05-07T13:12:43.714Z,0.50
2023-05-07T13:15:10.264Z,0.50
2023-05-07T13:17:36.843Z,0.57
2023-05-07T13:20:03.259Z,0.65
2023-05-07T13:22:29.562Z,0.40
2023-05-07T13:24:55.804Z,0.50
2023-05-07T13:27:22.125Z,1.10
2023-05-07T13:29:48.376Z,0.60
2023-05-07T13:32:14.690Z,0.60
2023-05-07T13:34:40.982Z,0.50
2023-05-07T13:37:11.111Z,0.40
2023-05-07T13:39:37.866Z,0.40
2023-05-07T13:42:04.117Z,0.47
2023-05-07T13:44:30.353Z,0.40
2023-05-07T13:46:56.591Z,0.50
2023-05-07T13:49:22.854Z,0.60
2023-05-07T13:51:49.142Z,0.50
2023-05-07T13:54:15.401Z,0.50
2023-05-07T13:56:41.637Z,0.50
2023-05-07T13:59:08.004Z,0.70
2023-05-07T14:01:36.117Z,0.57
2023-05-07T14:04:03.694Z,0.43
2023-05-07T14:06:30.017Z,0.63
2023-05-07T14:08:56.328Z,0.50
2023-05-07T14:11:22.539Z,0.98
2023-05-07T14:13:48.838Z,0.60
2023-05-07T14:16:15.197Z,0.57
2023-05-07T14:18:41.553Z,0.60
2023-05-07T14:21:07.813Z,0.50
2023-05-07T14:23:34.144Z,0.60
2023-05-07T14:26:00.442Z,0.70
2023-05-07T14:28:26.724Z,0.45
2023-05-07T14:30:52.991Z,0.70
2023-05-07T14:33:19.266Z,0.60
2023-05-07T14:35:45.563Z,0.77
2023-05-07T14:38:11.858Z,0.80
2023-05-07T14:40:38.096Z,0.77
2023-05-07T14:43:04.333Z,0.70
2023-05-07T14:45:30.684Z,0.77
2023-05-07T14:47:57.030Z,0.80
2023-05-07T14:50:23.280Z,0.90
2023-05-07T14:52:49.595Z,1.20
2023-05-07T14:55:15.849Z,0.88
2023-05-07T14:57:42.147Z,1.10
2023-05-07T15:00:08.456Z,1.15
2023-05-07T15:02:34.818Z,1.08
2023-05-07T15:05:01.188Z,0.90
2023-05-07T15:07:27.530Z,1.15
2023-05-07T15:09:53.763Z,1.00
2023-05-07T15:12:20.028Z,1.27
2023-05-07T15:14:46.273Z,1.38
2023-05-07T15:17:12.489Z,0.77
2023-05-07T15:19:38.830Z,0.75
2023-05-07T15:22:05.132Z,0.70
2023-05-07T15:24:31.417Z,0.85
2023-05-07T15:26:57.635Z,1.60
2023-05-07T15:29:23.859Z,0.70
2023-05-07T15:31:50.188Z,0.77
2023-05-07T15:34:16.510Z,0.90
2023-05-07T15:36:42.849Z,0.80
2023-05-07T15:39:09.124Z,1.08
2023-05-07T15:41:35.366Z,0.80
2023-05-07T15:44:01.653Z,1.02
2023-05-07T15:46:28.000Z,1.10
2023-05-07T15:48:54.399Z,2.20
2023-05-07T15:51:20.692Z,2.83
2023-05-07T15:53:46.936Z,1.73
2023-05-07T15:56:13.195Z,1.55
2023-05-07T15:58:39.464Z,1.10
2023-05-07T16:01:05.740Z,1.10
2023-05-07T16:03:32.209Z,1.00
2023-05-07T16:05:58.644Z,1.25
2023-05-07T16:08:25.000Z,1.10
2023-05-07T16:10:51.245Z,1.10
2023-05-07T16:13:17.582Z,1.08
2023-05-07T16:15:43.937Z,1.65
2023-05-07T16:18:10.162Z,1.38
2023-05-07T16:20:36.471Z,1.95
2023-05-07T16:23:02.962Z,0.90
2023-05-07T16:25:29.196Z,0.77
2023-05-07T16:27:55.412Z,0.95
2023-05-07T16:30:21.792Z,0.65
2023-05-07T16:32:48.114Z,0.57
2023-05-07T16:35:14.865Z,0.57
2023-05-07T16:37:41.414Z,0.70
2023-05-07T16:40:07.731Z,0.70
2023-05-07T16:42:33.989Z,0.90
2023-05-07T16:45:00.268Z,0.90
2023-05-07T16:47:26.568Z,1.23
2023-05-07T16:49:53.065Z,1.13
2023-05-07T16:52:19.335Z,1.10
2023-05-07T16:54:45.578Z,1.42
2023-05-07T16:57:11.857Z,1.20
2023-05-07T16:59:38.127Z,1.10
2023-05-07T17:02:04.462Z,0.93
2023-05-07T17:04:30.947Z,1.10
2023-05-07T17:06:57.277Z,0.90
2023-05-07T17:09:23.528Z,1.25
2023-05-07T17:11:49.775Z,0.90
2023-05-07T17:14:16.046Z,1.00
2023-05-07T17:16:42.386Z,0.90
2023-05-07T17:19:08.634Z,1.00
2023-05-07T17:21:34.923Z,0.90
2023-05-07T17:24:01.140Z,1.00
2023-05-07T17:26:27.375Z,1.00
2023-05-07T17:28:53.625Z,1.77
2023-05-07T17:31:19.999Z,1.35
2023-05-07T17:33:46.307Z,1.35
2023-05-07T17:36:12.900Z,1.25
2023-05-07T17:38:39.169Z,1.60
2023-05-07T17:41:05.395Z,1.40
2023-05-07T17:43:31.664Z,1.55
2023-05-07T17:45:58.056Z,1.38
2023-05-07T17:48:24.379Z,2.00
2023-05-07T17:50:50.717Z,1.70
2023-05-07T17:53:16.973Z,1.08
2023-05-07T17:55:43.183Z,1.10
2023-05-07T17:58:09.446Z,1.50
2023-05-07T18:00:35.727Z,1.48
2023-05-07T18:03:02.153Z,1.38
2023-05-07T18:05:28.655Z,1.20
2023-05-07T18:07:55.139Z,1.30
2023-05-07T18:10:21.412Z,1.52
2023-05-07T18:12:47.734Z,1.40
2023-05-07T18:15:14.010Z,1.42
2023-05-07T18:17:40.241Z,1.92
2023-05-07T18:20:06.578Z,2.17
2023-05-07T18:22:32.798Z,2.30
2023-05-07T18:24:59.075Z,2.10
2023-05-07T18:27:25.374Z,2.20
2023-05-07T18:29:51.705Z,3.80
2023-05-07T18:32:18.044Z,3.78
2023-05-07T18:34:44.356Z,2.25
2023-05-07T18:37:10.666Z,1.60
2023-05-07T18:39:36.930Z,1.95
2023-05-07T18:42:03.252Z,1.70
2023-05-07T18:44:29.588Z,1.55
2023-05-07T18:46:55.847Z,1.30
2023-05-07T18:49:22.118Z,1.50
2023-05-07T18:51:48.371Z,1.70
2023-05-07T18:54:14.581Z,2.30
2023-05-07T18:56:40.871Z,1.80
2023-05-07T18:59:07.104Z,2.13
2023-05-07T19:01:33.385Z,1.73
2023-05-07T19:03:59.704Z,1.90
2023-05-07T19:06:25.956Z,2.17
2023-05-07T19:08:52.265Z,2.03
2023-05-07T19:11:18.620Z,1.83
2023-05-07T19:13:44.859Z,2.38
2023-05-07T19:16:11.111Z,2.65
2023-05-07T19:18:37.369Z,2.80
2023-05-07T19:21:03.595Z,2.90
2023-05-07T19:23:29.929Z,1.95
2023-05-07T19:25:56.260Z,2.20
2023-05-07T19:28:22.491Z,2.00
2023-05-07T19:30:48.725Z,2.50
2023-05-07T19:33:14.968Z,1.90
2023-05-07T19:35:41.246Z,1.90
2023-05-07T19:38:07.664Z,2.17
2023-05-07T19:40:33.989Z,1.63
2023-05-07T19:43:00.400Z,1.83
2023-05-07T19:45:26.735Z,2.50
2023-05-07T19:47:53.136Z,2.20
2023-05-07T19:50:19.469Z,1.67
2023-05-07T19:52:45.748Z,1.60
2023-05-07T19:55:12.238Z,1.70
2023-05-07T19:57:38.702Z,1.60
2023-05-07T20:00:05.003Z,1.50
2023-05-07T20:02:31.381Z,2.05
2023-05-07T20:04:57.740Z,2.00
2023-05-07T20:07:24.070Z,1.75
2023-05-07T20:09:50.327Z,1.50
2023-05-07T20:12:16.584Z,1.88
2023-05-07T20:14:42.788Z,2.13
2023-05-07T20:17:09.140Z,1.92
2023-05-07T20:19:35.420Z,1.77
2023-05-07T20:22:01.664Z,1.70
2023-05-07T20:24:28.002Z,1.77
2023-05-07T20:26:54.348Z,1.90
2023-05-07T20:29:20.612Z,1.92
2023-05-07T20:31:47.006Z,2.83
2023-05-07T20:34:13.324Z,3.00
2023-05-07T20:36:39.640Z,2.95
2023-05-07T20:39:05.871Z,3.95
2023-05-07T20:41:32.148Z,3.47
2023-05-07T20:43:58.479Z,3.08
2023-05-07T20:46:24.767Z,3.60
2023-05-07T20:48:51.035Z,3.30
2023-05-07T20:51:17.319Z,3.67
2023-05-07T20:53:44.789Z,3.40
2023-05-07T20:56:12.353Z,3.20
2023-05-07T20:58:38.656Z,3.80
2023-05-07T21:01:04.892Z,3.75
2023-05-07T21:03:31.105Z,3.50
2023-05-07T21:05:57.320Z,3.42
2023-05-07T21:08:23.552Z,3.30
2023-05-07T21:10:49.834Z,3.58
2023-05-07T21:13:16.141Z,2.83
2023-05-07T21:15:42.466Z,2.80
2023-05-07T21:18:08.711Z,2.55
2023-05-07T21:20:34.959Z,2.13
2023-05-07T21:23:01.183Z,2.20
2023-05-07T21:25:27.488Z,1.80
2023-05-07T21:27:53.728Z,2.03
2023-05-07T21:30:20.033Z,5.85
2023-05-07T21:32:46.315Z,6.15
2023-05-07T21:35:12.583Z,6.30
2023-05-07T21:37:38.878Z,5.82
2023-05-07T21:40:05.231Z,4.47
2023-05-07T21:42:31.583Z,6.40
2023-05-07T21:44:57.832Z,6.20
2023-05-07T21:47:24.148Z,6.97
2023-05-07T21:49:50.439Z,6.68
2023-05-07T21:52:16.874Z,7.57
2023-05-07T21:54:43.238Z,7.30
2023-05-07T21:57:09.555Z,7.32
2023-05-07T21:59:35.870Z,7.15
2023-05-07T22:02:02.227Z,6.72
2023-05-07T22:04:28.552Z,7.28
2023-05-07T22:06:54.792Z,10.52
2023-05-07T22:09:21.028Z,12.43
2023-05-07T22:11:47.353Z,9.68
2023-05-07T22:14:13.614Z,9.10
2023-05-07T22:16:39.921Z,7.15
2023-05-07T22:19:06.240Z,7.15
2023-05-07T22:21:32.518Z,6.72
2023-05-07T22:23:58.755Z,5.97
2023-05-07T22:26:25.181Z,5.97
2023-05-07T22:28:54.104Z,5.65
2023-05-07T22:31:20.451Z,6.00
2023-05-07T22:33:46.844Z,5.80
2023-05-07T22:36:13.148Z,4.97
2023-05-07T22:38:39.658Z,5.03
2023-05-07T22:41:05.961Z,5.45
2023-05-07T22:43:32.214Z,4.85
2023-05-07T22:45:58.506Z,4.97
2023-05-07T22:48:24.776Z,5.20
2023-05-07T22:50:51.075Z,4.75
2023-05-07T22:53:17.280Z,4.60
2023-05-07T22:55:43.577Z,4.47
2023-05-07T22:58:09.893Z,5.35
2023-05-07T23:00:36.169Z,7.57
2023-05-07T23:03:02.623Z,13.57
2023-05-07T23:05:28.992Z,8.38
2023-05-07T23:07:55.266Z,6.85
2023-05-07T23:10:21.574Z,7.07
2023-05-07T23:12:47.850Z,6.55
2023-05-07T23:15:14.116Z,6.30
2023-05-07T23:17:40.433Z,6.88
2023-05-07T23:20:06.790Z,6.22
2023-05-07T23:22:33.175Z,5.88
2023-05-07T23:24:59.441Z,5.88
2023-05-07T23:27:25.679Z,5.95
2023-05-07T23:29:51.931Z,5.88
2023-05-07T23:32:18.330Z,4.97
2023-05-07T23:34:44.581Z,7.40
2023-05-07T23:37:10.872Z,8.95
2023-05-07T23:39:37.223Z,6.57
2023-05-07T23:42:03.602Z,5.13
2023-05-07T23:44:29.845Z,4.40
2023-05-07T23:46:56.075Z,4.45
2023-05-07T23:49:22.349Z,4.75
2023-05-07T23:51:48.578Z,4.03
2023-05-07T23:54:14.825Z,4.93
2023-05-07T23:56:41.078Z,4.30
2023-05-07T23:59:07.422Z,3.75
